Mutunopolis, Brazil
Current Conditions -  °F | °C
As of 9:00 PM on Sunday 21 Dec 2014 (Local Time) from SBBR Reporting Station
Light Rain Light Rain  
Wind Chill: 72°   Ceiling: 10000
Heat Index: 72°   Visibility: 6mi
Dew Point: 66°   Wind: 3mph
Humidity: 83%   Direction: 20°NNE
Pressure: NA   Gusts: NA
Location:  13.73°S, 49.27°W
Report Text: SBBR 212300Z 02003KT 9000 -RA SCT030 FEW040TCU OVC100 22/19 Q1018
Loading
Personal Weather Stations






























Interactive Weather Map New forecast layout! Learn more

10-Day Weather Forecast

Advertisements
Track Severe Weather on mobile